La Fontaine, Indiana
Current Conditions -  °F | °C
As of 11:35 AM on Friday 31 Oct 2014 (Local Time) from KMZZ Reporting Station
Overcast Overcast  
Wind Chill: 31°   Ceiling: 1400
Heat Index: 39°   Visibility: 7mi
Dew Point: 36°   Wind: 15mph
Humidity: 86%   Direction: 320°NW
Pressure: 29.98"   Gusts: 25mph
Location:  40.67°N, 85.72°W
Report Text: KMZZ 311535Z AUTO 32013G22KT 7SM BKN014 OVC019 04/02 A2998 RMK AO2 T00410020
Loading
Personal Weather Stations






























Interactive Weather Map
Tropical Storm Tracking
New forecast layout! Learn more

10-Day Weather Forecast

Advertisements
Track Severe Weather on mobile